createdAt,value
2023-02-11T00:01:33.678Z,8.08
2023-02-11T00:04:01.002Z,8.15
2023-02-11T00:06:29.897Z,8.03
2023-02-11T00:08:58.676Z,7.75
2023-02-11T00:11:30.437Z,7.87
2023-02-11T00:14:00.354Z,7.79
2023-02-11T00:16:32.472Z,7.75
2023-02-11T00:19:01.542Z,7.51
2023-02-11T00:21:28.700Z,7.81
2023-02-11T00:23:57.326Z,7.88
2023-02-11T00:26:30.914Z,8.09
2023-02-11T00:28:57.656Z,8.02
2023-02-11T00:31:25.715Z,8.13
2023-02-11T00:33:52.961Z,8.06
2023-02-11T00:36:25.674Z,8.33
2023-02-11T00:38:53.695Z,8.34
2023-02-11T00:41:21.376Z,8.43
2023-02-11T00:43:48.237Z,8.40
2023-02-11T00:46:15.978Z,8.25
2023-02-11T00:48:42.960Z,8.27
2023-02-11T00:51:10.162Z,8.32
2023-02-11T00:53:37.085Z,8.30
2023-02-11T00:56:04.472Z,8.59
2023-02-11T00:58:31.711Z,8.49
2023-02-11T01:00:59.012Z,8.46
2023-02-11T01:03:26.098Z,8.38
2023-02-11T01:05:53.053Z,8.53
2023-02-11T01:08:20.147Z,8.52
2023-02-11T01:10:57.741Z,8.57
2023-02-11T01:13:25.362Z,8.88
2023-02-11T01:15:52.644Z,8.54
2023-02-11T01:18:19.947Z,8.87
2023-02-11T01:20:54.222Z,8.96
2023-02-11T01:23:21.674Z,8.60
2023-02-11T01:25:48.992Z,8.75
2023-02-11T01:28:20.240Z,9.09
2023-02-11T01:30:47.357Z,8.85
2023-02-11T01:33:14.282Z,9.01
2023-02-11T01:35:41.847Z,9.03
2023-02-11T01:38:14.706Z,8.85
2023-02-11T01:40:47.783Z,9.17
2023-02-11T01:43:14.463Z,9.14
2023-02-11T01:45:47.533Z,9.36
2023-02-11T01:48:35.741Z,9.25
2023-02-11T01:51:14.230Z,9.43
2023-02-11T01:54:00.678Z,9.23
2023-02-11T01:56:47.605Z,9.31
2023-02-11T01:59:21.526Z,9.30
2023-02-11T02:01:53.246Z,9.36
2023-02-11T02:04:21.008Z,9.42
2023-02-11T02:06:56.110Z,9.32
2023-02-11T02:09:28.872Z,9.22
2023-02-11T02:11:55.738Z,9.60
2023-02-11T02:14:22.304Z,9.19
2023-02-11T02:16:49.174Z,9.36
2023-02-11T02:19:36.625Z,9.63
2023-02-11T02:22:15.007Z,9.47
2023-02-11T02:24:47.802Z,9.70
2023-02-11T02:27:58.575Z,9.74
2023-02-11T02:30:54.586Z,9.60
2023-02-11T02:33:53.427Z,9.73
2023-02-11T02:36:47.863Z,9.71
2023-02-11T02:39:31.921Z,9.54
2023-02-11T02:42:03.268Z,9.40
2023-02-11T02:44:32.815Z,9.49
2023-02-11T02:47:07.249Z,9.57
2023-02-11T02:49:36.528Z,9.57
2023-02-11T02:52:24.669Z,9.39
2023-02-11T02:55:11.503Z,9.77
2023-02-11T02:58:10.933Z,9.68
2023-02-11T03:00:55.226Z,9.55
2023-02-11T03:03:54.177Z,9.74
2023-02-11T03:06:34.711Z,9.58
2023-02-11T03:09:15.124Z,9.32
2023-02-11T03:11:43.294Z,9.81
2023-02-11T03:14:16.194Z,9.52
2023-02-11T03:16:49.016Z,9.56
2023-02-11T03:19:35.622Z,9.80
2023-02-11T03:22:27.743Z,9.25
2023-02-11T03:24:56.617Z,9.27
2023-02-11T03:27:58.082Z,9.46
2023-02-11T03:30:41.175Z,9.50
2023-02-11T03:33:20.482Z,9.81
2023-02-11T03:36:02.480Z,9.52
2023-02-11T03:38:43.501Z,9.62
2023-02-11T03:41:12.813Z,9.56
2023-02-11T03:43:45.138Z,9.81
2023-02-11T03:46:14.748Z,9.82
2023-02-11T03:48:46.019Z,9.52
2023-02-11T03:51:14.208Z,9.76
2023-02-11T03:53:44.858Z,9.48
2023-02-11T03:56:17.873Z,9.87
2023-02-11T03:58:46.147Z,9.75
2023-02-11T04:01:13.023Z,9.77
2023-02-11T04:03:40.152Z,9.65
2023-02-11T04:06:07.400Z,9.71
2023-02-11T04:08:34.055Z,9.69
2023-02-11T04:11:03.213Z,9.48
2023-02-11T04:13:30.933Z,9.69
2023-02-11T04:15:59.892Z,9.40
2023-02-11T04:18:31.097Z,9.58
2023-02-11T04:20:58.065Z,9.79
2023-02-11T04:23:24.679Z,9.57
2023-02-11T04:25:51.468Z,9.57
2023-02-11T04:28:18.475Z,9.42
2023-02-11T04:30:45.185Z,9.73
2023-02-11T04:33:11.822Z,9.47
2023-02-11T04:35:38.496Z,9.50
2023-02-11T04:38:05.336Z,9.37
2023-02-11T04:40:31.977Z,9.65
2023-02-11T04:42:58.603Z,9.54
2023-02-11T04:45:25.242Z,9.63
2023-02-11T04:47:51.873Z,9.39
2023-02-11T04:50:18.654Z,9.46
2023-02-11T04:52:45.509Z,9.33
2023-02-11T04:55:12.330Z,9.58
2023-02-11T04:57:39.097Z,9.49
2023-02-11T05:00:06.907Z,9.70
2023-02-11T05:02:33.491Z,9.46
2023-02-11T05:05:00.146Z,9.52
2023-02-11T05:07:26.830Z,9.50
2023-02-11T05:09:53.751Z,9.34
2023-02-11T05:12:20.307Z,9.57
2023-02-11T05:14:46.935Z,9.37
2023-02-11T05:17:13.544Z,9.39
2023-02-11T05:19:42.120Z,9.65
2023-02-11T05:22:08.997Z,9.62
2023-02-11T05:24:35.594Z,9.44
2023-02-11T05:27:02.348Z,9.42
2023-02-11T05:29:29.621Z,9.54
2023-02-11T05:31:56.278Z,9.37
2023-02-11T05:34:22.903Z,9.17
2023-02-11T05:36:49.467Z,9.39
2023-02-11T05:39:16.068Z,9.36
2023-02-11T05:41:42.930Z,9.47
2023-02-11T05:44:10.209Z,9.44
2023-02-11T05:46:36.906Z,9.29
2023-02-11T05:49:04.188Z,9.58
2023-02-11T05:51:30.703Z,9.38
2023-02-11T05:53:57.281Z,9.57
2023-02-11T05:56:24.049Z,9.43
2023-02-11T05:58:50.760Z,9.49
2023-02-11T06:01:17.614Z,9.42
2023-02-11T06:03:44.317Z,9.60
2023-02-11T06:06:13.973Z,9.30
2023-02-11T06:08:41.005Z,9.30
2023-02-11T06:11:07.896Z,9.37
2023-02-11T06:13:35.119Z,9.45
2023-02-11T06:16:05.020Z,9.17
2023-02-11T06:18:37.881Z,9.16
2023-02-11T06:21:09.335Z,9.28
2023-02-11T06:23:36.232Z,9.40
2023-02-11T06:26:05.282Z,9.28
2023-02-11T06:28:33.992Z,9.43
2023-02-11T06:31:12.172Z,9.07
2023-02-11T06:33:45.306Z,9.40
2023-02-11T06:36:19.720Z,9.36
2023-02-11T06:38:47.316Z,9.33
2023-02-11T06:41:20.513Z,9.27
2023-02-11T06:43:50.226Z,9.22
2023-02-11T06:46:16.887Z,9.22
2023-02-11T06:48:44.937Z,9.24
2023-02-11T06:51:13.714Z,9.28
2023-02-11T06:53:52.096Z,9.35
2023-02-11T06:56:22.006Z,9.10
2023-02-11T06:58:58.128Z,9.50
2023-02-11T07:01:26.504Z,9.51
2023-02-11T07:03:53.348Z,9.17
2023-02-11T07:06:28.134Z,9.29
2023-02-11T07:09:06.528Z,9.21
2023-02-11T07:11:51.438Z,9.17
2023-02-11T07:14:18.177Z,9.05
2023-02-11T07:16:56.099Z,9.08
2023-02-11T07:19:24.111Z,9.00
2023-02-11T07:21:50.958Z,9.23
2023-02-11T07:24:17.642Z,9.29
2023-02-11T07:26:49.937Z,8.91
2023-02-11T07:29:25.538Z,8.96
2023-02-11T07:32:07.886Z,9.14
2023-02-11T07:34:37.046Z,9.06
2023-02-11T07:37:07.624Z,9.16
2023-02-11T07:39:34.427Z,9.08
2023-02-11T07:42:01.386Z,9.07
2023-02-11T07:44:34.611Z,8.96
2023-02-11T07:47:10.334Z,8.87
2023-02-11T07:49:50.147Z,9.11
2023-02-11T07:52:16.796Z,9.14
2023-02-11T07:54:46.942Z,9.26
2023-02-11T07:57:13.771Z,9.14
2023-02-11T07:59:40.384Z,9.23
2023-02-11T08:02:07.508Z,9.21
2023-02-11T08:04:36.779Z,9.43
2023-02-11T08:07:10.687Z,9.36
2023-02-11T08:09:40.046Z,9.22
2023-02-11T08:12:06.990Z,9.15
2023-02-11T08:14:39.097Z,9.15
2023-02-11T08:17:07.166Z,9.05
2023-02-11T08:19:38.765Z,9.29
2023-02-11T08:22:05.903Z,9.50
2023-02-11T08:24:40.417Z,9.51
2023-02-11T08:27:08.612Z,9.41
2023-02-11T08:29:41.979Z,9.51
2023-02-11T08:32:08.827Z,9.51
2023-02-11T08:34:38.453Z,9.84
2023-02-11T08:37:08.513Z,9.35
2023-02-11T08:39:35.253Z,9.87
2023-02-11T08:42:05.319Z,9.80
2023-02-11T08:44:32.030Z,9.69
2023-02-11T08:47:18.208Z,9.71
2023-02-11T08:49:44.913Z,9.70
2023-02-11T08:52:16.632Z,10.13
2023-02-11T08:54:43.285Z,10.00
2023-02-11T08:57:33.878Z,10.17
2023-02-11T09:02:52.110Z,10.05
2023-02-11T09:05:33.178Z,10.06
2023-02-11T09:08:06.993Z,10.02
2023-02-11T09:10:49.421Z,9.90
2023-02-11T09:13:17.029Z,10.30
2023-02-11T09:15:46.917Z,10.30
2023-02-11T09:18:22.938Z,10.18
2023-02-11T09:20:50.255Z,10.31
2023-02-11T09:23:24.954Z,10.32
2023-02-11T09:25:53.846Z,10.31
2023-02-11T09:28:29.496Z,10.60
2023-02-11T09:30:56.277Z,10.25
2023-02-11T09:33:29.012Z,10.11
2023-02-11T09:36:05.353Z,10.15
2023-02-11T09:38:43.125Z,9.99
2023-02-11T09:41:47.968Z,10.53
2023-02-11T09:44:29.794Z,10.66
2023-02-11T09:47:00.284Z,10.60
2023-02-11T09:49:43.184Z,10.47
2023-02-11T09:52:48.960Z,10.89
2023-02-11T09:55:32.241Z,10.96
2023-02-11T09:57:58.978Z,10.53
2023-02-11T10:00:53.611Z,10.56
2023-02-11T10:03:30.882Z,11.03
2023-02-11T10:06:05.103Z,11.08
2023-02-11T10:08:46.568Z,11.10
2023-02-11T10:11:52.467Z,11.16
2023-02-11T10:14:45.338Z,11.05
2023-02-11T10:17:19.217Z,10.91
2023-02-11T10:20:04.519Z,10.82
2023-02-11T10:22:40.873Z,10.88
2023-02-11T10:25:38.892Z,11.16
2023-02-11T10:29:01.544Z,11.30
2023-02-11T10:32:00.284Z,11.10
2023-02-11T10:34:47.744Z,11.19
2023-02-11T10:37:20.870Z,11.10
2023-02-11T10:39:53.279Z,11.29
2023-02-11T10:42:19.973Z,11.46
2023-02-11T10:45:32.429Z,11.48
2023-02-11T10:48:02.188Z,11.40
2023-02-11T10:50:35.328Z,11.46
2023-02-11T10:53:27.608Z,11.97
2023-02-11T10:56:00.144Z,11.75
2023-02-11T10:58:54.458Z,11.79
2023-02-11T11:01:48.584Z,11.63
2023-02-11T11:04:30.718Z,12.09
2023-02-11T11:07:10.289Z,11.91
2023-02-11T11:10:21.507Z,11.54
2023-02-11T11:12:53.340Z,11.52
2023-02-11T11:18:23.467Z,12.07
2023-02-11T11:21:49.035Z,12.30
2023-02-11T11:24:35.881Z,11.95
2023-02-11T11:27:32.794Z,12.25
2023-02-11T11:30:11.859Z,12.27
2023-02-11T11:32:45.003Z,12.10
2023-02-11T11:35:41.520Z,12.02
2023-02-11T11:41:47.022Z,12.11
2023-02-11T11:44:40.082Z,12.62
2023-02-11T11:47:13.590Z,12.62
2023-02-11T11:50:30.168Z,12.09
2023-02-11T11:58:56.981Z,12.21
2023-02-11T12:01:20.080Z,12.74
2023-02-11T12:04:10.964Z,12.72
2023-02-11T12:06:54.028Z,12.47
2023-02-11T12:10:17.930Z,12.60
2023-02-11T12:13:30.077Z,12.70
2023-02-11T12:17:13.740Z,12.68
2023-02-11T12:20:50.359Z,12.08
2023-02-11T12:23:37.105Z,12.33
2023-02-11T12:26:21.769Z,12.22
2023-02-11T12:29:39.955Z,12.48
2023-02-11T12:32:30.381Z,12.47
2023-02-11T12:35:30.660Z,12.45
2023-02-11T12:38:30.755Z,12.44
2023-02-11T12:41:12.386Z,12.25
2023-02-11T12:44:04.867Z,11.89
2023-02-11T12:47:17.898Z,12.23
2023-02-11T12:50:53.714Z,12.40
2023-02-11T12:55:28.273Z,12.51
2023-02-11T12:57:05.519Z,12.35
2023-02-11T12:59:38.525Z,12.44
2023-02-11T13:02:22.019Z,11.96
2023-02-11T13:05:01.049Z,11.83
2023-02-11T13:11:14.373Z,12.04
2023-02-11T13:13:55.770Z,11.99
2023-02-11T13:16:43.925Z,12.26
2023-02-11T13:22:33.602Z,11.81
2023-02-11T13:25:29.787Z,12.07
2023-02-11T13:28:23.728Z,12.11
2023-02-11T13:33:49.944Z,12.05
2023-02-11T13:36:22.076Z,11.84
2023-02-11T13:39:08.070Z,11.91
2023-02-11T13:41:37.302Z,12.33
2023-02-11T13:44:25.186Z,12.36
2023-02-11T13:46:57.415Z,12.28
2023-02-11T13:49:53.545Z,12.20
2023-02-11T13:52:40.000Z,11.78
2023-02-11T13:55:21.685Z,12.29
2023-02-11T13:58:19.124Z,12.27
2023-02-11T14:07:52.589Z,11.97
2023-02-11T14:17:07.197Z,12.14
2023-02-11T14:20:37.291Z,12.15
2023-02-11T14:30:38.921Z,12.06
2023-02-11T14:33:55.295Z,11.70
2023-02-11T14:36:56.826Z,12.02
2023-02-11T14:39:52.003Z,12.02
2023-02-11T14:42:27.532Z,11.80
2023-02-11T14:45:08.327Z,11.48
2023-02-11T14:47:45.913Z,11.61
2023-02-11T14:50:41.671Z,11.69
2023-02-11T14:53:37.692Z,11.69
2023-02-11T15:53:49.504Z,11.82
2023-02-11T15:57:01.312Z,11.23
2023-02-11T16:31:21.625Z,11.13
2023-02-11T16:33:48.454Z,11.15
2023-02-11T16:36:37.402Z,11.14
2023-02-11T16:44:08.592Z,11.00
2023-02-11T16:46:42.088Z,11.14
2023-02-11T16:49:31.413Z,11.47
2023-02-11T16:52:24.134Z,11.45
2023-02-11T16:55:21.913Z,11.43
2023-02-11T16:58:26.203Z,10.78
2023-02-11T17:01:07.391Z,11.09
2023-02-11T17:03:37.712Z,10.99
2023-02-11T17:06:16.128Z,11.14
2023-02-11T17:08:46.231Z,10.80
2023-02-11T17:11:18.916Z,10.82
2023-02-11T17:14:02.300Z,10.69
2023-02-11T17:16:31.647Z,10.83
2023-02-11T17:18:58.611Z,11.22
2023-02-11T17:25:11.343Z,11.12
2023-02-11T17:27:51.859Z,10.80
2023-02-11T17:30:23.039Z,10.74
2023-02-11T17:32:51.119Z,10.78
2023-02-11T17:36:06.006Z,10.74
2023-02-11T17:38:42.420Z,10.34
2023-02-11T17:41:34.080Z,10.58
2023-02-11T17:44:10.424Z,10.79
2023-02-11T17:46:44.868Z,10.67
2023-02-11T17:49:13.870Z,10.93
2023-02-11T17:52:39.775Z,10.89
2023-02-11T17:59:11.999Z,10.61
2023-02-11T18:01:47.977Z,10.57
2023-02-11T18:05:05.265Z,10.34
2023-02-11T18:08:21.216Z,10.91
2023-02-11T18:10:52.678Z,10.30
2023-02-11T18:13:41.354Z,10.22
2023-02-11T18:16:22.059Z,10.62
2023-02-11T18:19:21.237Z,10.66
2023-02-11T18:28:53.856Z,10.62
2023-02-11T18:31:24.386Z,10.54
2023-02-11T18:37:11.879Z,10.45
2023-02-11T18:39:54.885Z,10.37
2023-02-11T18:42:27.340Z,10.41
2023-02-11T18:53:21.366Z,10.28
2023-02-11T18:55:54.755Z,10.31
2023-02-11T18:55:55.618Z,10.45
2023-02-11T18:58:52.223Z,10.10
2023-02-11T19:04:28.405Z,10.30
2023-02-11T19:10:20.298Z,9.98
2023-02-11T19:13:24.368Z,10.17
2023-02-11T19:15:51.849Z,10.31
2023-02-11T19:18:19.381Z,10.28
2023-02-11T19:20:53.427Z,10.00
2023-02-11T19:23:36.669Z,10.38
2023-02-11T19:26:07.079Z,10.58
2023-02-11T19:28:37.565Z,10.17
2023-02-11T19:31:33.051Z,10.32
2023-02-11T19:34:04.001Z,10.40
2023-02-11T19:36:37.061Z,10.17
2023-02-11T19:39:12.177Z,10.50
2023-02-11T19:42:08.084Z,10.50
2023-02-11T19:45:17.540Z,10.44
2023-02-11T19:47:51.962Z,10.21
2023-02-11T19:50:31.173Z,10.22
2023-02-11T19:53:05.741Z,10.13
2023-02-11T19:55:42.018Z,10.14
2023-02-11T19:58:13.191Z,10.21
2023-02-11T20:01:26.595Z,9.93
2023-02-11T20:03:57.851Z,10.18
2023-02-11T20:06:29.503Z,9.71
2023-02-11T20:08:59.096Z,10.06
2023-02-11T20:11:28.537Z,9.76
2023-02-11T20:13:58.644Z,9.93
2023-02-11T20:16:49.141Z,10.01
2023-02-11T20:19:18.619Z,10.33
2023-02-11T20:21:47.744Z,10.09
2023-02-11T20:24:29.476Z,10.12
2023-02-11T20:27:11.952Z,9.96
2023-02-11T20:29:40.367Z,10.34
2023-02-11T20:32:22.515Z,9.94
2023-02-11T20:34:52.136Z,9.93
2023-02-11T20:37:22.416Z,10.10
2023-02-11T20:40:28.256Z,10.14
2023-02-11T20:43:05.415Z,10.09
2023-02-11T20:46:08.660Z,9.98
2023-02-11T20:48:43.846Z,9.86
2023-02-11T20:51:14.289Z,10.14
2023-02-11T20:53:50.105Z,10.12
2023-02-11T20:56:20.160Z,10.30
2023-02-11T20:58:52.783Z,9.91
2023-02-11T21:01:35.536Z,9.68
2023-02-11T21:04:24.258Z,9.66
2023-02-11T21:07:13.001Z,9.94
2023-02-11T21:09:42.957Z,9.59
2023-02-11T21:12:12.036Z,9.72
2023-02-11T21:14:44.175Z,10.12
2023-02-11T21:20:44.550Z,9.65
2023-02-11T21:23:40.554Z,9.87
2023-02-11T21:26:21.972Z,9.89
2023-02-11T21:31:40.250Z,9.77
2023-02-11T21:34:17.866Z,9.83
2023-02-11T21:36:45.364Z,9.78
2023-02-11T21:39:15.633Z,9.78
2023-02-11T21:41:46.387Z,9.77
2023-02-11T21:44:16.194Z,9.65
2023-02-11T21:46:47.093Z,9.69
2023-02-11T21:49:16.970Z,10.09
2023-02-11T21:51:51.153Z,9.66
2023-02-11T21:54:22.333Z,9.85
2023-02-11T21:56:54.786Z,9.63
2023-02-11T21:59:32.416Z,9.67
2023-02-11T22:02:03.587Z,9.59
2023-02-11T22:04:35.420Z,9.85
2023-02-11T22:10:13.881Z,9.49
2023-02-11T22:12:46.330Z,9.56
2023-02-11T22:15:13.474Z,9.59
2023-02-11T22:17:45.874Z,9.66
2023-02-11T22:20:12.824Z,9.71
2023-02-11T22:23:02.386Z,9.80
2023-02-11T22:25:29.204Z,9.48
2023-02-11T22:27:55.854Z,9.82
2023-02-11T22:30:36.301Z,9.63
2023-02-11T22:33:05.713Z,9.81
2023-02-11T22:35:34.746Z,9.71
2023-02-11T22:38:06.524Z,9.81
2023-02-11T22:40:35.501Z,9.37
2023-02-11T22:43:20.727Z,9.65
2023-02-11T22:45:50.598Z,9.96
2023-02-11T22:48:29.001Z,9.72
2023-02-11T22:51:38.420Z,9.42
2023-02-11T22:54:35.488Z,9.37
2023-02-11T22:57:22.549Z,9.45
2023-02-11T23:00:02.561Z,9.57
2023-02-11T23:02:29.415Z,9.61
2023-02-11T23:04:59.860Z,9.43
2023-02-11T23:08:09.929Z,9.86
2023-02-11T23:10:39.325Z,9.56
2023-02-11T23:13:17.731Z,9.68
2023-02-11T23:15:46.016Z,9.71
2023-02-11T23:18:15.871Z,9.58
2023-02-11T23:23:36.949Z,9.22
2023-02-11T23:26:12.491Z,9.63
2023-02-11T23:28:45.615Z,9.37
2023-02-11T23:31:25.564Z,9.44
2023-02-11T23:33:53.235Z,9.22
2023-02-11T23:36:23.854Z,9.64
2023-02-11T23:38:51.671Z,9.60
2023-02-11T23:41:19.309Z,9.49
2023-02-11T23:43:53.361Z,9.21
2023-02-11T23:46:22.202Z,9.60
2023-02-11T23:49:15.763Z,9.32
2023-02-11T23:51:42.514Z,9.35
2023-02-11T23:54:13.754Z,9.47
2023-02-11T23:56:42.535Z,9.83
2023-02-11T23:59:09.585Z,9.41
